Time;durP1;ratioP1;P1;durP2;ratioP2;P2;SDS_P1;SDS_P2;PMS_P1;PMS_P2;Temp;Humidity;BMP_temperature;BMP_pressure;BME280_temperature;BME280_humidity;BME280_pressure;Samples;Min_cycle;Max_cycle;Signal;HPM_P1;HPM_P2
2024/03/11 00:02:04;;;;;;;40.78;24.95;;;;;;;8.19;76.44;98647.91;10166672;29;20522;-84
2024/03/11 00:07:09;;;;;;;38.13;24.25;;;;;;;8.16;76.52;98645.53;10174426;29;20111;-84
2024/03/11 00:12:17;;;;;;;37.55;25.20;;;;;;;8.12;76.85;98660.22;10173734;29;20052;-83
2024/03/11 00:17:21;;;;;;;41.58;23.58;;;;;;;8.12;76.89;98669.06;10174774;29;20170;-84
2024/03/11 00:22:26;;;;;;;37.30;24.23;;;;;;;8.11;77.08;98667.38;10172112;29;20396;-83
2024/03/11 00:27:29;;;;;;;40.65;25.42;;;;;;;8.04;77.02;98668.16;10148176;29;20082;-84
2024/03/11 00:32:32;;;;;;;40.15;24.65;;;;;;;7.98;77.35;98666.91;10172635;29;20055;-84
2024/03/11 00:37:37;;;;;;;39.67;24.77;;;;;;;7.94;77.55;98660.16;10172891;29;20043;-83
2024/03/11 00:42:40;;;;;;;40.20;25.45;;;;;;;7.90;77.81;98666.81;10172669;29;20047;-83
2024/03/11 00:47:45;;;;;;;40.88;25.98;;;;;;;7.87;78.21;98656.41;10166142;29;20054;-84
2024/03/11 00:52:50;;;;;;;43.92;26.15;;;;;;;7.76;78.71;98662.78;10170653;29;20046;-83
2024/03/11 00:57:53;;;;;;;44.30;26.42;;;;;;;7.77;78.75;98659.13;10164950;29;20044;-83
2024/03/11 01:02:57;;;;;;;44.67;26.42;;;;;;;7.78;78.79;98658.13;10155730;29;21729;-82
2024/03/11 01:08:02;;;;;;;44.53;25.70;;;;;;;7.77;78.90;98658.31;10177562;29;20411;-83
2024/03/11 01:13:05;;;;;;;43.47;25.55;;;;;;;7.70;79.25;98653.53;10177126;29;20044;-83
2024/03/11 01:18:09;;;;;;;44.72;24.83;;;;;;;7.67;79.52;98642.28;10179903;29;20052;-84
2024/03/11 01:23:13;;;;;;;41.75;25.75;;;;;;;7.68;79.32;98649.34;10181279;29;20066;-82
2024/03/11 01:28:17;;;;;;;46.10;26.83;;;;;;;7.69;79.27;98656.38;10181424;29;20154;-84
2024/03/11 01:33:20;;;;;;;42.33;25.30;;;;;;;7.70;79.28;98663.38;10178362;29;20047;-83
2024/03/11 01:38:26;;;;;;;42.20;25.52;;;;;;;7.71;79.40;98657.91;10179749;29;20067;-84
2024/03/11 01:43:30;;;;;;;44.25;25.98;;;;;;;7.72;79.22;98667.59;10173976;29;20059;-83
2024/03/11 01:48:33;;;;;;;44.28;26.35;;;;;;;7.73;79.23;98660.41;10180893;29;20076;-83
2024/03/11 01:53:40;;;;;;;42.25;24.33;;;;;;;7.79;79.15;98669.66;10203811;29;20060;-83
2024/03/11 01:58:46;;;;;;;41.97;24.63;;;;;;;7.79;79.04;98667.00;10204308;29;20047;-82
2024/03/11 02:03:50;;;;;;;42.35;24.70;;;;;;;7.80;79.01;98660.66;10193794;29;20055;-84
2024/03/11 02:08:55;;;;;;;40.53;24.27;;;;;;;7.73;78.94;98655.94;10176463;29;20067;-84
2024/03/11 02:13:59;;;;;;;40.70;24.73;;;;;;;7.65;79.31;98653.16;10192021;28;20048;-84
2024/03/11 02:19:03;;;;;;;43.03;25.20;;;;;;;7.68;79.38;98652.00;10167381;29;20044;-84
2024/03/11 02:24:08;;;;;;;39.70;24.60;;;;;;;7.67;79.45;98653.00;10174408;29;20122;-84
2024/03/11 02:29:11;;;;;;;38.55;24.40;;;;;;;7.66;79.36;98651.31;10172767;29;20075;-84
2024/03/11 02:34:15;;;;;;;41.03;25.17;;;;;;;7.68;79.47;98646.69;10168996;29;20396;-84
2024/03/11 02:39:20;;;;;;;42.45;25.27;;;;;;;7.68;79.41;98650.19;10169753;29;21485;-83
2024/03/11 02:44:23;;;;;;;38.33;23.92;;;;;;;7.72;79.47;98650.72;10172322;29;20415;-84
2024/03/11 02:49:27;;;;;;;38.15;23.67;;;;;;;7.73;79.29;98644.38;10177392;29;20134;-84
2024/03/11 02:54:32;;;;;;;41.83;25.02;;;;;;;7.71;78.90;98644.53;10173660;29;20047;-84
2024/03/11 02:59:35;;;;;;;42.97;25.05;;;;;;;7.64;78.96;98646.09;10177477;29;20088;-83
2024/03/11 03:04:39;;;;;;;44.35;25.13;;;;;;;7.63;79.41;98644.44;10172468;29;21080;-83
2024/03/11 03:09:43;;;;;;;45.17;25.50;;;;;;;7.63;79.49;98649.78;10178934;29;20052;-84
2024/03/11 03:14:46;;;;;;;43.67;26.08;;;;;;;7.65;79.57;98644.28;10175592;29;20056;-84
2024/03/11 03:19:49;;;;;;;39.33;23.17;;;;;;;7.63;79.44;98636.41;10168192;29;20135;-84
2024/03/11 03:24:54;;;;;;;41.35;24.80;;;;;;;7.61;79.50;98637.56;10177367;29;20454;-83
2024/03/11 03:29:58;;;;;;;41.03;24.67;;;;;;;7.58;79.66;98646.69;10170924;29;20055;-83
2024/03/11 03:35:01;;;;;;;44.17;25.25;;;;;;;7.58;79.79;98644.03;10173633;29;20051;-84
2024/03/11 03:40:15;;;;;;;39.42;25.33;;;;;;;7.55;80.00;98624.78;10170465;29;20511;-82
2024/03/11 03:45:21;;;;;;;47.22;26.33;;;;;;;7.51;80.08;98642.94;10171074;29;20575;-83
2024/03/11 03:50:24;;;;;;;44.03;26.23;;;;;;;7.49;80.45;98628.91;10181139;29;20567;-83
2024/03/11 03:55:29;;;;;;;44.15;25.70;;;;;;;7.51;80.45;98632.25;10171460;29;20044;-83
2024/03/11 04:00:34;;;;;;;46.53;26.35;;;;;;;7.56;80.46;98621.13;10168547;29;20093;-83
2024/03/11 04:05:38;;;;;;;44.53;25.48;;;;;;;7.57;80.53;98634.34;10166920;29;20717;-82
2024/03/11 04:10:42;;;;;;;47.53;26.27;;;;;;;7.58;80.60;98644.03;10170310;29;20048;-84
2024/03/11 04:15:46;;;;;;;47.90;26.65;;;;;;;7.62;81.54;98637.38;10171582;29;20071;-84
2024/03/11 04:20:50;;;;;;;52.38;28.23;;;;;;;7.50;85.76;98626.06;10169854;29;20043;-82
2024/03/11 04:25:54;;;;;;;47.42;26.48;;;;;;;7.30;91.47;98607.59;10167541;29;20473;-82
2024/03/11 04:30:57;;;;;;;51.03;28.05;;;;;;;7.04;96.64;98627.75;10169571;29;20176;-83
2024/03/11 04:36:01;;;;;;;48.67;26.98;;;;;;;6.70;99.98;98623.88;10171631;29;20048;-83
2024/03/11 04:41:05;;;;;;;55.20;29.30;;;;;;;6.75;100.00;98625.13;10165887;29;20142;-82
2024/03/11 04:46:09;;;;;;;56.47;29.95;;;;;;;6.75;100.00;98619.81;10177750;28;20068;-83
2024/03/11 04:51:12;;;;;;;57.33;31.23;;;;;;;6.70;100.00;98611.38;10173315;29;20066;-83
2024/03/11 04:56:17;;;;;;;59.05;31.05;;;;;;;6.78;100.00;98627.50;10179208;29;20055;-83
2024/03/11 05:01:20;;;;;;;54.50;30.27;;;;;;;6.93;100.00;98625.25;10165462;29;21241;-83
2024/03/11 05:06:23;;;;;;;56.65;31.17;;;;;;;6.99;100.00;98626.50;10167901;29;20238;-82
2024/03/11 05:11:30;;;;;;;53.00;28.70;;;;;;;6.94;100.00;98632.31;10171047;29;21233;-83
2024/03/11 05:16:33;;;;;;;56.78;30.23;;;;;;;6.95;100.00;98636.66;10173837;29;20056;-82
2024/03/11 05:21:36;;;;;;;55.65;30.88;;;;;;;6.93;100.00;98651.13;10172454;29;20431;-83
2024/03/11 05:26:41;;;;;;;59.72;31.90;;;;;;;6.91;100.00;98669.09;10172144;29;20059;-82
2024/03/11 05:31:45;;;;;;;60.42;31.10;;;;;;;6.91;100.00;98661.94;10168760;29;20135;-83
2024/03/11 05:36:49;;;;;;;55.70;29.92;;;;;;;6.90;100.00;98662.91;10166709;29;20048;-82
2024/03/11 05:41:53;;;;;;;63.22;31.00;;;;;;;6.87;100.00;98671.22;10172407;29;20550;-82
2024/03/11 05:46:56;;;;;;;58.65;30.48;;;;;;;6.91;100.00;98677.09;10179328;29;20041;-82
2024/03/11 05:51:59;;;;;;;56.38;30.63;;;;;;;6.81;100.00;98664.59;10175188;29;20125;-82
2024/03/11 05:57:04;;;;;;;57.95;31.02;;;;;;;6.86;100.00;98669.50;10175823;29;20071;-83
2024/03/11 06:02:08;;;;;;;64.30;31.85;;;;;;;6.87;100.00;98673.00;10175747;29;20048;-83
2024/03/11 06:07:11;;;;;;;55.50;30.92;;;;;;;6.96;100.00;98673.03;10171606;29;20052;-82
2024/03/11 06:12:16;;;;;;;57.50;30.30;;;;;;;7.02;100.00;98674.28;10176249;29;20183;-82
2024/03/11 06:17:19;;;;;;;64.43;31.95;;;;;;;7.02;100.00;98687.63;10176365;29;20146;-82
2024/03/11 06:22:22;;;;;;;58.50;31.65;;;;;;;7.02;100.00;98690.28;10171055;29;20051;-83
2024/03/11 06:27:27;;;;;;;59.13;31.70;;;;;;;7.07;100.00;98696.03;10176808;29;20072;-82
2024/03/11 06:32:32;;;;;;;63.67;31.02;;;;;;;7.14;100.00;98696.34;10177301;29;20455;-82
2024/03/11 06:37:35;;;;;;;55.50;30.55;;;;;;;7.16;100.00;98702.34;10177875;29;20115;-83
2024/03/11 06:42:39;;;;;;;60.92;32.53;;;;;;;7.15;100.00;98709.53;10173750;29;20047;-83
2024/03/11 06:47:43;;;;;;;59.72;32.90;;;;;;;7.18;100.00;98716.41;10176533;29;20047;-83
2024/03/11 06:52:47;;;;;;;65.00;33.90;;;;;;;7.14;100.00;98725.72;10174103;29;21154;-84
2024/03/11 06:57:51;;;;;;;61.58;32.78;;;;;;;7.15;100.00;98719.38;10174433;29;20044;-83
2024/03/11 07:02:54;;;;;;;62.03;34.28;;;;;;;7.15;100.00;98722.88;10168604;29;20051;-82
2024/03/11 07:07:57;;;;;;;62.50;35.15;;;;;;;7.14;100.00;98731.03;10172388;29;20423;-82
2024/03/11 07:13:02;;;;;;;71.15;38.13;;;;;;;7.19;100.00;98732.31;10174060;29;20135;-82
2024/03/11 07:18:08;;;;;;;65.15;37.72;;;;;;;7.13;100.00;98738.22;10174017;29;20051;-81
2024/03/11 07:23:12;;;;;;;65.65;35.95;;;;;;;7.17;100.00;98752.97;10176830;29;20085;-82
2024/03/11 07:28:17;;;;;;;57.97;31.33;;;;;;;7.49;100.00;98749.94;10189942;28;20062;-82
2024/03/11 07:33:20;;;;;;;56.03;32.63;;;;;;;7.67;100.00;98746.53;10178227;29;20538;-82
2024/03/11 07:38:24;;;;;;;52.13;31.02;;;;;;;7.67;100.00;98752.69;10165605;29;21094;-83
2024/03/11 07:43:29;;;;;;;57.15;33.40;;;;;;;7.64;100.00;98761.00;10169723;29;20051;-82
2024/03/11 07:48:32;;;;;;;50.40;30.38;;;;;;;7.82;100.00;98763.78;10194466;29;20048;-81
2024/03/11 07:53:36;;;;;;;57.55;32.10;;;;;;;8.00;100.00;98771.84;10170077;29;20048;-81
2024/03/11 07:58:41;;;;;;;52.63;31.85;;;;;;;8.07;100.00;98777.47;10173414;28;20044;-82
2024/03/11 08:03:44;;;;;;;55.15;34.47;;;;;;;8.09;100.00;98789.72;10166072;28;20047;-82
2024/03/11 08:08:52;;;;;;;57.28;33.83;;;;;;;8.23;100.00;98798.22;10167425;29;20050;-82
2024/03/11 08:13:57;;;;;;;59.25;34.13;;;;;;;8.35;100.00;98808.59;10166861;29;20051;-81
2024/03/11 08:19:00;;;;;;;58.88;34.72;;;;;;;8.56;100.00;98810.22;10171814;29;20054;-82
2024/03/11 08:24:04;;;;;;;59.72;35.35;;;;;;;8.49;100.00;98819.81;10165652;29;20050;-82
2024/03/11 08:29:08;;;;;;;63.47;37.35;;;;;;;8.81;99.91;98816.69;10179020;28;20127;-81
2024/03/11 08:34:11;;;;;;;56.63;34.00;;;;;;;9.12;96.81;98816.31;10164045;29;20055;-82
2024/03/11 08:39:14;;;;;;;58.78;34.92;;;;;;;8.87;97.40;98828.63;10156314;29;20524;-82
2024/03/11 08:44:19;;;;;;;54.08;33.08;;;;;;;8.81;95.74;98819.34;10169918;29;20063;-81
2024/03/11 08:49:23;;;;;;;55.75;35.45;;;;;;;9.03;95.64;98837.66;10167355;29;20051;-82
2024/03/11 08:54:28;;;;;;;63.25;36.80;;;;;;;9.33;97.20;98835.59;10168535;29;20088;-83
2024/03/11 08:59:34;;;;;;;61.92;36.55;;;;;;;9.84;93.03;98833.13;10171603;28;20048;-83
2024/03/11 09:04:38;;;;;;;57.97;34.67;;;;;;;9.81;92.51;98852.22;10165369;29;20524;-82
2024/03/11 09:09:40;;;;;;;58.78;35.97;;;;;;;9.86;94.96;98844.56;10169103;29;20063;-82
2024/03/11 09:14:47;;;;;;;54.75;33.72;;;;;;;10.54;92.00;98846.47;10168473;29;20059;-82
2024/03/11 09:19:50;;;;;;;56.55;34.60;;;;;;;10.70;84.59;98841.16;10166038;29;20054;-81
2024/03/11 09:24:54;;;;;;;49.67;31.63;;;;;;;10.53;84.73;98844.75;10160982;29;20385;-83
2024/03/11 09:29:59;;;;;;;51.65;31.67;;;;;;;10.99;83.82;98850.63;10171092;29;20047;-81
2024/03/11 09:35:05;;;;;;;52.10;31.75;;;;;;;11.03;82.84;98854.69;10169322;29;20654;-82
2024/03/11 09:40:09;;;;;;;52.88;31.75;;;;;;;11.06;79.34;98859.72;10173880;29;20056;-82
2024/03/11 09:45:17;;;;;;;54.45;33.10;;;;;;;11.18;79.13;98863.78;10182733;29;20051;-82
2024/03/11 09:50:26;;;;;;;53.25;33.38;;;;;;;10.53;80.00;98869.78;10177380;29;20051;-82
2024/03/11 09:55:30;;;;;;;48.05;28.65;;;;;;;10.20;81.97;98874.13;10176041;28;20092;-83
2024/03/11 10:00:35;;;;;;;46.40;28.88;;;;;;;10.13;82.10;98876.59;10167078;29;20063;-83
2024/03/11 10:05:44;;;;;;;45.65;26.20;;;;;;;9.96;82.43;98890.91;10184629;28;20142;-81
2024/03/11 10:11:12;;;;;;;45.97;29.20;;;;;;;9.94;82.83;98885.69;10180528;28;20051;-83
2024/03/11 10:16:18;;;;;;;42.00;23.90;;;;;;;10.11;81.36;98881.28;10174456;29;20051;-82
2024/03/11 10:21:22;;;;;;;34.70;20.33;;;;;;;10.20;80.18;98892.06;10167444;29;20087;-82
2024/03/11 10:26:30;;;;;;;25.98;15.73;;;;;;;10.12;79.11;98901.78;10178208;28;20687;-81
2024/03/11 10:31:36;;;;;;;21.90;14.73;;;;;;;10.27;77.15;98899.34;10178843;29;20055;-84
2024/03/11 10:36:41;;;;;;;22.02;14.10;;;;;;;10.62;76.40;98902.88;10171232;29;20531;-83
2024/03/11 10:41:44;;;;;;;19.08;12.25;;;;;;;10.34;76.10;98910.28;10172620;29;20080;-84
2024/03/11 10:46:49;;;;;;;10.95;7.57;;;;;;;9.90;75.62;98921.91;10174750;29;20052;-81
2024/03/11 10:51:56;;;;;;;13.45;9.82;;;;;;;10.11;77.50;98923.38;10166794;29;20043;-85
2024/03/11 10:57:01;;;;;;;11.43;8.13;;;;;;;10.24;76.35;98926.50;10172290;29;20055;-83
2024/03/11 11:02:07;;;;;;;11.88;7.85;;;;;;;10.13;76.40;98937.47;10165181;29;20066;-82
2024/03/11 11:07:11;;;;;;;10.15;6.82;;;;;;;9.57;79.81;98950.22;10171372;29;20110;-82
2024/03/11 11:12:14;;;;;;;10.63;7.50;;;;;;;9.46;80.09;98966.50;10167315;29;20048;-81
2024/03/11 11:17:19;;;;;;;11.25;7.03;;;;;;;9.09;82.60;98967.44;10169437;29;20391;-81
2024/03/11 11:22:25;;;;;;;11.48;7.18;;;;;;;9.54;81.08;98979.16;10173980;29;20047;-81
2024/03/11 11:27:29;;;;;;;9.23;5.72;;;;;;;9.43;80.64;98981.06;10172159;29;20196;-79
2024/03/11 11:32:35;;;;;;;13.35;7.78;;;;;;;9.35;79.81;98985.47;10188738;28;20431;-81
2024/03/11 11:37:39;;;;;;;10.10;7.30;;;;;;;9.44;79.59;98995.31;10186043;28;20048;-81
2024/03/11 11:42:43;;;;;;;12.73;8.02;;;;;;;9.49;78.09;99001.91;10191886;28;20096;-82
2024/03/11 11:47:50;;;;;;;10.63;7.13;;;;;;;9.06;78.33;99014.13;10184381;29;20047;-81
2024/03/11 11:52:57;;;;;;;10.32;6.00;;;;;;;9.39;76.70;99021.72;10165711;29;20051;-81
2024/03/11 11:58:07;;;;;;;8.30;5.50;;;;;;;9.24;77.20;99021.38;10155632;29;20047;-81
2024/03/11 12:03:30;;;;;;;3.95;3.08;;;;;;;8.91;73.45;99023.63;10160554;29;20078;-82
2024/03/11 12:08:34;;;;;;;2.85;2.35;;;;;;;9.25;71.31;99026.59;10170667;28;20156;-82
2024/03/11 12:13:38;;;;;;;2.50;1.30;;;;;;;9.20;69.10;99036.06;10157975;29;20060;-82
2024/03/11 12:18:59;;;;;;;1.65;1.30;;;;;;;9.34;68.28;99030.19;10162479;29;20058;-81
2024/03/11 12:24:07;;;;;;;1.67;0.63;;;;;;;8.87;68.54;99049.03;10168056;29;20063;-82
2024/03/11 12:29:14;;;;;;;0.70;0.70;;;;;;;9.09;69.30;99029.06;10172788;28;20088;-82
2024/03/11 12:34:23;;;;;;;0.50;0.50;;;;;;;9.35;67.62;99029.22;10165451;29;20442;-81
2024/03/11 12:39:28;;;;;;;1.50;0.50;;;;;;;9.53;66.98;99031.09;10161145;29;20090;-82
2024/03/11 12:44:32;;;;;;;0.50;0.50;;;;;;;9.76;67.23;99039.53;10160047;29;20056;-81
2024/03/11 12:49:37;;;;;;;0.30;0.30;;;;;;;9.30;67.42;99071.69;10163944;29;20051;-81
2024/03/11 12:54:40;;;;;;;0.20;0.20;;;;;;;8.95;69.14;99070.56;10162705;29;20051;-83
2024/03/11 12:59:45;;;;;;;0.20;0.20;;;;;;;9.04;68.47;99080.38;10169642;29;22065;-82
2024/03/11 13:04:53;;;;;;;0.60;0.30;;;;;;;8.87;69.45;99091.03;10171785;29;20111;-81
2024/03/11 13:09:57;;;;;;;1.67;0.20;;;;;;;8.93;68.68;99101.16;10181097;29;20133;-82
2024/03/11 13:15:00;;;;;;;1.65;0.20;;;;;;;8.59;69.04;99117.72;10174509;29;20051;-83
2024/03/11 13:20:09;;;;;;;0.20;0.20;;;;;;;8.44;69.47;99111.06;10171187;29;20055;-82
2024/03/11 13:25:11;;;;;;;0.20;0.10;;;;;;;8.50;70.27;99119.41;10169493;29;20047;-81
2024/03/11 13:30:15;;;;;;;1.00;0.20;;;;;;;8.34;70.71;99129.81;10184228;28;20052;-82
2024/03/11 13:35:20;;;;;;;0.30;0.20;;;;;;;8.74;69.75;99123.44;10175002;29;20167;-83
2024/03/11 13:40:23;;;;;;;0.55;0.30;;;;;;;8.86;69.44;99134.84;10176320;29;20048;-83
2024/03/11 13:45:26;;;;;;;0.47;0.38;;;;;;;8.57;69.97;99149.94;10197654;28;20668;-82
2024/03/11 13:50:32;;;;;;;2.05;0.40;;;;;;;8.91;68.92;99154.00;10200942;28;20147;-80
2024/03/11 13:55:38;;;;;;;1.52;0.30;;;;;;;9.00;68.67;99162.03;10196056;28;20062;-81
2024/03/11 14:00:43;;;;;;;0.28;0.28;;;;;;;9.09;67.50;99178.22;10207807;28;20062;-80
2024/03/11 14:05:49;;;;;;;1.40;0.10;;;;;;;8.92;66.04;99182.50;10248080;28;20054;-80
2024/03/11 14:10:52;;;;;;;0.32;0.20;;;;;;;9.08;66.41;99184.56;10243575;28;20047;-80
2024/03/11 14:15:55;;;;;;;0.50;0.10;;;;;;;9.26;66.12;99204.25;10245460;28;20051;-80
2024/03/11 14:21:00;;;;;;;0.57;0.03;;;;;;;9.08;65.82;99217.56;10204589;28;20712;-81
2024/03/11 14:26:03;;;;;;;0.10;0.10;;;;;;;9.46;65.30;99221.13;10193007;28;20055;-81
2024/03/11 14:31:08;;;;;;;0.32;0.22;;;;;;;9.41;64.20;99226.13;10179850;29;20040;-81
2024/03/11 14:36:12;;;;;;;0.17;0.10;;;;;;;9.71;62.94;99223.19;10182851;29;20529;-81
2024/03/11 14:41:15;;;;;;;0.22;0.10;;;;;;;9.44;63.63;99237.38;10183394;29;20058;-81
2024/03/11 14:46:20;;;;;;;0.10;0.10;;;;;;;8.80;66.83;99232.66;10182952;28;20361;-81
2024/03/11 14:51:25;;;;;;;1.05;0.20;;;;;;;9.54;64.86;99236.50;10168329;29;20051;-81
2024/03/11 14:56:28;;;;;;;0.17;0.17;;;;;;;9.87;63.21;99237.81;10181043;29;20123;-81
2024/03/11 15:01:31;;;;;;;0.30;0.30;;;;;;;9.24;64.78;99260.69;10181645;29;20142;-80
2024/03/11 15:06:36;;;;;;;0.32;0.17;;;;;;;9.46;64.97;99254.16;10177008;29;20058;-80
2024/03/11 15:11:39;;;;;;;0.30;0.30;;;;;;;9.25;66.26;99261.53;10172270;29;20052;-81
2024/03/11 15:16:43;;;;;;;0.20;0.20;;;;;;;9.56;65.56;99258.66;10175574;29;20062;-81
2024/03/11 15:21:49;;;;;;;0.30;0.30;;;;;;;9.41;66.32;99259.13;10168285;29;20053;-80
2024/03/11 15:26:52;;;;;;;0.80;0.50;;;;;;;9.32;66.88;99278.72;10182623;28;20063;-81
2024/03/11 15:31:55;;;;;;;0.47;0.40;;;;;;;9.49;67.14;99275.31;10167202;29;20054;-82
2024/03/11 15:37:00;;;;;;;0.40;0.40;;;;;;;9.60;67.95;99265.41;10188119;28;20055;-82
2024/03/11 15:42:04;;;;;;;1.08;0.40;;;;;;;9.67;67.51;99274.56;10197314;28;21226;-81
2024/03/11 15:47:09;;;;;;;0.63;0.63;;;;;;;9.50;67.76;99277.00;10218133;28;20060;-81
2024/03/11 15:52:14;;;;;;;0.65;0.55;;;;;;;9.41;68.37;99285.06;10236773;28;20039;-81
2024/03/11 15:57:21;;;;;;;1.30;0.30;;;;;;;9.51;67.66;99293.91;10222811;28;20048;-82
2024/03/11 16:02:24;;;;;;;0.60;0.60;;;;;;;9.42;67.96;99292.97;10176129;29;21126;-82
2024/03/11 16:07:29;;;;;;;0.73;0.50;;;;;;;9.68;67.45;99290.53;10161819;28;20058;-82
2024/03/11 16:12:31;;;;;;;1.20;0.40;;;;;;;9.35;68.01;99312.44;10176045;29;20040;-83
2024/03/11 16:17:36;;;;;;;1.10;0.38;;;;;;;9.63;67.23;99308.03;10174925;28;20132;-81
2024/03/11 16:22:41;;;;;;;0.65;0.60;;;;;;;9.56;67.56;99304.22;10163774;29;20067;-82
2024/03/11 16:27:46;;;;;;;1.50;0.50;;;;;;;9.43;68.19;99320.59;10166297;29;21171;-83
2024/03/11 16:32:51;;;;;;;0.88;0.60;;;;;;;9.42;69.07;99319.75;10172825;29;20135;-83
2024/03/11 16:37:57;;;;;;;0.50;0.50;;;;;;;9.62;68.57;99335.81;10170980;29;21197;-83
2024/03/11 16:43:03;;;;;;;1.70;0.70;;;;;;;9.13;70.90;99341.19;10171552;28;20131;-82
2024/03/11 16:48:10;;;;;;;1.13;0.55;;;;;;;9.19;71.01;99347.84;10171313;29;20123;-83
2024/03/11 16:53:20;;;;;;;0.63;0.60;;;;;;;9.18;71.50;99348.81;10173421;28;20059;-82
2024/03/11 16:58:24;;;;;;;1.88;0.70;;;;;;;9.35;70.28;99361.53;10169557;29;20123;-85
2024/03/11 17:03:28;;;;;;;0.68;0.60;;;;;;;9.12;70.74;99358.28;10172256;29;20078;-84
2024/03/11 17:08:33;;;;;;;1.30;0.50;;;;;;;9.26;70.11;99367.72;10171218;28;20040;-83
2024/03/11 17:13:37;;;;;;;0.47;0.45;;;;;;;8.80;71.50;99375.44;10178133;29;20043;-83
2024/03/11 17:18:40;;;;;;;0.65;0.57;;;;;;;9.13;70.57;99375.19;10181954;28;20047;-83
2024/03/11 17:23:45;;;;;;;0.50;0.50;;;;;;;8.99;71.19;99371.91;10189536;28;20101;-84
2024/03/11 17:28:49;;;;;;;0.98;0.65;;;;;;;9.05;70.80;99375.88;10193840;29;20043;-84
2024/03/11 17:33:52;;;;;;;1.65;0.70;;;;;;;8.91;71.34;99371.75;10189643;28;20595;-84
2024/03/11 17:38:57;;;;;;;0.60;0.60;;;;;;;8.97;70.84;99371.22;10192316;28;21204;-85
2024/03/11 17:44:01;;;;;;;0.90;0.80;;;;;;;8.81;71.73;99370.94;10194683;28;20051;-85
2024/03/11 17:49:05;;;;;;;1.40;0.80;;;;;;;8.93;71.28;99377.84;10210913;28;20110;-86
2024/03/11 17:54:10;;;;;;;2.45;0.93;;;;;;;9.00;71.08;99395.06;10194156;28;20142;-85
2024/03/11 17:59:14;;;;;;;1.10;1.00;;;;;;;9.03;71.29;99397.47;10204274;28;20066;-85
2024/03/11 18:04:18;;;;;;;1.73;1.38;;;;;;;9.08;71.36;99405.09;10201669;28;20059;-86
2024/03/11 18:09:31;;;;;;;2.75;2.22;;;;;;;9.10;71.40;99410.28;10198232;28;20063;-86
2024/03/11 18:14:36;;;;;;;3.38;3.08;;;;;;;8.98;72.15;99423.81;10196742;28;21154;-84
2024/03/11 18:19:39;;;;;;;2.63;2.33;;;;;;;8.96;72.67;99423.09;10203247;28;20070;-84
2024/03/11 18:24:45;;;;;;;2.03;1.83;;;;;;;8.90;73.00;99438.88;10191291;28;20170;-84
2024/03/11 18:29:48;;;;;;;2.38;2.17;;;;;;;8.81;73.22;99437.88;10170555;29;20802;-83
2024/03/11 18:34:52;;;;;;;1.30;1.20;;;;;;;8.70;74.03;99459.38;10180211;28;20047;-83
2024/03/11 18:39:57;;;;;;;3.00;1.20;;;;;;;8.67;74.57;99459.66;10202262;28;20047;-82
2024/03/11 18:45:00;;;;;;;2.70;1.10;;;;;;;8.50;75.97;99470.00;10201400;28;20046;-82
2024/03/11 18:50:06;;;;;;;1.40;1.30;;;;;;;8.44;76.94;99478.53;10198768;28;20055;-82
2024/03/11 18:55:12;;;;;;;1.40;1.30;;;;;;;8.57;76.50;99489.91;10202043;28;20063;-82
2024/03/11 19:00:22;;;;;;;1.88;1.60;;;;;;;8.65;76.23;99496.41;10204993;28;20060;-80
2024/03/11 19:05:26;;;;;;;1.67;1.58;;;;;;;8.78;75.48;99511.28;10202740;28;20177;-82
2024/03/11 19:10:32;;;;;;;2.13;1.92;;;;;;;8.79;75.29;99521.00;10205148;28;20518;-82
2024/03/11 19:15:38;;;;;;;1.55;1.38;;;;;;;8.82;75.12;99517.22;10190732;28;20048;-83
2024/03/11 19:20:42;;;;;;;3.25;2.10;;;;;;;8.84;75.05;99525.97;10207598;28;21556;-82
2024/03/11 19:25:46;;;;;;;5.07;2.22;;;;;;;8.83;74.75;99526.94;10201347;28;21791;-82
2024/03/11 19:30:50;;;;;;;2.33;1.60;;;;;;;8.76;74.89;99531.97;10208752;28;20056;-82
2024/03/11 19:35:54;;;;;;;3.50;1.90;;;;;;;8.79;75.08;99545.09;10210437;28;20178;-82
2024/03/11 19:41:06;;;;;;;2.70;1.92;;;;;;;8.57;75.28;99559.50;10207602;28;20604;-81
2024/03/11 19:46:41;;;;;;;2.00;1.80;;;;;;;8.54;75.30;99554.41;10208079;28;20039;-82
2024/03/11 19:52:31;;;;;;;2.35;1.65;;;;;;;8.65;73.92;99566.88;10169170;29;20078;-81
2024/03/11 19:58:13;;;;;;;1.55;1.45;;;;;;;8.58;73.43;99571.03;10165200;29;20087;-83
2024/03/11 20:03:52;;;;;;;2.05;1.83;;;;;;;8.52;73.93;99564.38;10182386;28;20600;-83
2024/03/11 20:09:27;;;;;;;1.98;1.77;;;;;;;8.64;73.67;99572.34;10170645;29;20050;-81
2024/03/11 20:14:51;;;;;;;2.33;1.98;;;;;;;8.69;73.92;99580.84;10165230;29;20050;-81
2024/03/11 20:20:34;;;;;;;2.53;2.33;;;;;;;8.61;74.30;99582.34;10162536;28;20068;-83
2024/03/11 20:26:05;;;;;;;6.07;2.72;;;;;;;8.34;76.02;99584.66;10141704;28;20126;-83
2024/03/11 20:31:14;;;;;;;2.90;2.70;;;;;;;8.49;75.29;99598.59;10187983;28;20043;-82
2024/03/11 20:36:20;;;;;;;4.25;2.30;;;;;;;8.47;75.31;99604.06;10191274;28;20054;-82
2024/03/11 20:41:26;;;;;;;2.70;2.40;;;;;;;8.46;75.21;99605.06;10191400;28;20657;-82
2024/03/11 20:46:30;;;;;;;6.68;4.45;;;;;;;8.42;75.45;99608.09;10206947;28;20043;-83
2024/03/11 20:51:34;;;;;;;6.55;4.53;;;;;;;8.39;75.58;99623.44;10192798;28;20058;-82
2024/03/11 20:56:41;;;;;;;4.97;4.38;;;;;;;8.38;75.87;99612.84;10187148;28;20087;-84
2024/03/11 21:01:46;;;;;;;3.63;3.30;;;;;;;8.33;76.26;99623.09;10189833;28;20039;-83
2024/03/11 21:06:51;;;;;;;2.80;2.55;;;;;;;8.35;76.89;99639.88;10194565;28;20127;-83
2024/03/11 21:11:55;;;;;;;3.78;3.20;;;;;;;8.41;77.19;99634.00;10188195;28;20690;-82
2024/03/11 21:17:06;;;;;;;3.17;2.72;;;;;;;8.49;77.21;99644.94;10190083;28;20055;-82
2024/03/11 21:22:19;;;;;;;4.05;3.58;;;;;;;8.48;78.07;99648.63;10196196;28;20051;-83
2024/03/11 21:27:27;;;;;;;3.67;3.10;;;;;;;8.49;77.95;99649.47;10198399;28;20047;-82
2024/03/11 21:32:35;;;;;;;3.35;3.05;;;;;;;8.49;78.37;99661.00;10196300;28;20052;-82
2024/03/11 21:37:39;;;;;;;3.08;2.72;;;;;;;8.56;77.63;99666.72;10199107;28;20054;-83
2024/03/11 21:42:42;;;;;;;4.95;3.53;;;;;;;8.63;77.27;99669.72;10196824;28;20396;-83
2024/03/11 21:47:47;;;;;;;4.72;3.70;;;;;;;8.67;77.07;99674.69;10224810;28;20048;-82
2024/03/11 21:52:50;;;;;;;8.52;6.00;;;;;;;8.72;76.85;99671.59;10197320;28;20046;-83
2024/03/11 21:57:53;;;;;;;9.98;5.75;;;;;;;8.69;76.78;99663.84;10168114;28;20059;-82
2024/03/11 22:02:57;;;;;;;4.20;3.80;;;;;;;8.71;76.67;99668.06;10185505;28;20051;-84
2024/03/11 22:08:00;;;;;;;6.28;4.85;;;;;;;8.74;76.27;99672.31;10177638;29;20047;-84
2024/03/11 22:13:04;;;;;;;6.85;5.00;;;;;;;8.83;76.06;99677.75;10179733;29;20051;-81
2024/03/11 22:18:09;;;;;;;6.10;4.85;;;;;;;8.77;76.16;99680.09;10179344;29;20465;-82
2024/03/11 22:23:13;;;;;;;6.85;4.20;;;;;;;8.80;76.18;99680.72;10176000;29;20055;-82
2024/03/11 22:28:17;;;;;;;4.15;3.75;;;;;;;8.77;76.28;99685.47;10171811;29;21149;-83
2024/03/11 22:33:22;;;;;;;5.60;4.22;;;;;;;8.80;76.32;99695.91;10176051;28;20138;-82
2024/03/11 22:38:25;;;;;;;4.10;3.60;;;;;;;8.75;76.52;99693.63;10193799;29;20071;-80
2024/03/11 22:43:28;;;;;;;11.90;6.38;;;;;;;8.83;76.31;99692.97;10196404;29;20471;-80
2024/03/11 22:48:32;;;;;;;5.15;4.10;;;;;;;8.79;76.43;99695.06;10191820;29;20606;-82
2024/03/11 22:53:35;;;;;;;7.75;4.85;;;;;;;8.81;76.55;99700.31;10184210;29;20142;-81
2024/03/11 22:58:39;;;;;;;5.35;4.57;;;;;;;8.86;76.37;99698.09;10171676;29;20051;-82
2024/03/11 23:03:45;;;;;;;4.75;4.03;;;;;;;8.89;76.54;99695.16;10177709;29;20051;-82
2024/03/11 23:08:48;;;;;;;7.72;5.55;;;;;;;8.92;76.34;99704.75;10178400;29;20215;-80
2024/03/11 23:13:52;;;;;;;5.15;4.07;;;;;;;8.92;76.53;99696.72;10177810;29;20043;-82
2024/03/11 23:18:58;;;;;;;7.43;4.82;;;;;;;8.92;76.83;99699.38;10173244;29;20048;-82
2024/03/11 23:24:02;;;;;;;5.85;4.43;;;;;;;8.90;76.87;99701.34;10175177;29;20186;-82
2024/03/11 23:29:08;;;;;;;5.53;4.22;;;;;;;8.88;76.85;99714.84;10172475;28;21200;-81
2024/03/11 23:34:13;;;;;;;7.90;4.25;;;;;;;8.84;77.17;99703.56;10173269;29;20075;-82
2024/03/11 23:39:16;;;;;;;6.15;4.88;;;;;;;8.90;76.80;99702.19;10176087;29;20047;-81